Time;durP1;ratioP1;P1;durP2;ratioP2;P2;SDS_P1;SDS_P2;PMS_P1;PMS_P2;Temp;Humidity;BMP_temperature;BMP_pressure;BME280_temperature;BME280_humidity;BME280_pressure;Samples;Min_cycle;Max_cycle;Signal;HPM_P1;HPM_P2
2021/05/04 00:01:37;;;;;;;2.95;2.38;;;13.50;62.60;;;;;;4968085;28;20039;-39
2021/05/04 00:04:03;;;;;;;6.32;2.67;;;13.50;62.30;;;;;;4974074;28;20026;-38
2021/05/04 00:06:29;;;;;;;5.38;2.40;;;13.50;62.90;;;;;;4971089;28;20030;-38
2021/05/04 00:08:55;;;;;;;6.25;2.80;;;13.50;63.80;;;;;;4970692;28;20019;-39
2021/05/04 00:11:20;;;;;;;3.33;2.20;;;13.50;65.30;;;;;;4978222;28;20481;-35
2021/05/04 00:13:46;;;;;;;7.45;2.60;;;13.40;65.00;;;;;;4982361;28;20033;-38
2021/05/04 00:16:12;;;;;;;6.88;2.50;;;13.30;65.30;;;;;;4975880;28;20186;-38
2021/05/04 00:18:37;;;;;;;7.82;2.80;;;13.30;66.40;;;;;;4984143;28;20019;-38
2021/05/04 00:21:03;;;;;;;4.25;2.42;;;13.30;65.20;;;;;;4974387;28;20046;-38
2021/05/04 00:23:29;;;;;;;5.78;2.35;;;13.20;66.10;;;;;;4983885;28;20090;-38
2021/05/04 00:25:54;;;;;;;5.30;2.67;;;13.20;66.90;;;;;;4974706;28;20029;-38
2021/05/04 00:28:20;;;;;;;10.77;2.55;;;13.20;67.10;;;;;;4985558;28;20511;-38
2021/05/04 00:30:46;;;;;;;7.32;2.42;;;13.20;68.50;;;;;;4971927;28;20189;-36
2021/05/04 00:33:11;;;;;;;4.15;2.47;;;13.10;69.80;;;;;;4985475;28;20041;-38
2021/05/04 00:35:37;;;;;;;5.10;2.47;;;13.00;70.70;;;;;;4972916;28;20142;-36
2021/05/04 00:38:03;;;;;;;4.93;2.55;;;12.90;72.80;;;;;;4984690;28;20030;-36
2021/05/04 00:40:28;;;;;;;6.88;2.78;;;12.70;74.30;;;;;;4975786;28;20038;-36
2021/05/04 00:42:54;;;;;;;3.60;2.63;;;12.60;75.70;;;;;;4981856;28;20374;-35
2021/05/04 00:45:20;;;;;;;4.10;2.70;;;12.40;77.70;;;;;;4978167;28;20477;-37
2021/05/04 00:47:45;;;;;;;4.75;2.78;;;12.30;78.80;;;;;;4979969;28;20409;-38
2021/05/04 00:50:11;;;;;;;4.03;2.40;;;12.20;81.10;;;;;;4980016;28;20463;-36
2021/05/04 00:52:37;;;;;;;3.33;2.80;;;12.00;83.00;;;;;;4977275;28;20449;-39
2021/05/04 00:55:04;;;;;;;8.00;2.50;;;11.90;84.70;;;;;;4982781;28;20085;-38
2021/05/04 00:57:33;;;;;;;5.57;2.70;;;11.80;85.20;;;;;;4974350;28;20029;-39
2021/05/04 01:00:04;;;;;;;4.88;2.65;;;11.70;86.80;;;;;;4983645;28;20081;-38
2021/05/04 01:02:32;;;;;;;12.30;3.03;;;11.50;87.60;;;;;;4974433;28;20089;-36
2021/05/04 01:04:58;;;;;;;5.25;2.72;;;11.50;89.00;;;;;;4983121;28;20575;-38
2021/05/04 01:07:26;;;;;;;3.45;2.40;;;11.40;90.70;;;;;;4974120;28;20065;-38
2021/05/04 01:09:52;;;;;;;2.75;2.22;;;11.20;91.00;;;;;;4984175;28;20026;-37
2021/05/04 01:12:18;;;;;;;5.65;2.60;;;11.00;91.60;;;;;;4981238;28;20177;-37
2021/05/04 01:14:43;;;;;;;6.45;2.63;;;10.90;92.70;;;;;;4984706;28;20046;-42
2021/05/04 01:17:08;;;;;;;4.40;2.25;;;10.80;92.90;;;;;;4979161;28;20034;-39
2021/05/04 01:19:34;;;;;;;7.75;2.90;;;10.70;93.60;;;;;;4965557;28;20031;-38
2021/05/04 01:22:00;;;;;;;5.43;2.70;;;10.60;93.90;;;;;;4975251;28;20358;-38
2021/05/04 01:24:25;;;;;;;3.38;3.00;;;10.50;94.20;;;;;;4967289;28;20133;-35
2021/05/04 01:26:51;;;;;;;4.60;2.70;;;10.50;94.50;;;;;;4972616;28;20030;-37
2021/05/04 01:29:17;;;;;;;5.63;3.10;;;10.40;94.70;;;;;;4970320;28;20026;-37
2021/05/04 01:31:42;;;;;;;4.43;2.60;;;10.40;94.80;;;;;;4970857;28;20748;-38
2021/05/04 01:34:09;;;;;;;9.30;2.92;;;10.40;94.90;;;;;;4971478;28;20039;-36
2021/05/04 01:36:35;;;;;;;3.53;2.63;;;10.40;95.40;;;;;;4968491;28;20037;-37
2021/05/04 01:39:04;;;;;;;8.63;2.75;;;10.40;95.30;;;;;;4974240;28;20121;-37
2021/05/04 01:41:29;;;;;;;3.35;2.88;;;10.30;95.40;;;;;;4966073;28;20395;-37
2021/05/04 01:43:57;;;;;;;4.22;2.53;;;10.30;95.40;;;;;;4976478;28;20023;-37
2021/05/04 01:46:22;;;;;;;4.65;3.30;;;10.30;95.40;;;;;;4966204;28;20045;-36
2021/05/04 01:48:48;;;;;;;5.13;2.72;;;10.30;95.50;;;;;;4979132;28;20133;-38
2021/05/04 01:51:13;;;;;;;4.93;2.80;;;10.30;95.70;;;;;;4969877;28;20142;-37
2021/05/04 01:53:39;;;;;;;7.57;3.15;;;10.30;95.80;;;;;;4980781;28;20027;-35
2021/05/04 01:56:04;;;;;;;4.32;2.42;;;10.30;96.00;;;;;;4969177;28;20039;-36
2021/05/04 01:58:30;;;;;;;4.30;2.70;;;10.20;96.00;;;;;;4981078;28;20027;-37
2021/05/04 02:00:55;;;;;;;5.20;2.80;;;10.20;96.30;;;;;;4968554;28;20030;-38
2021/05/04 02:03:21;;;;;;;4.53;2.83;;;10.20;96.50;;;;;;4979475;28;20150;-35
2021/05/04 02:05:47;;;;;;;4.78;3.30;;;10.20;96.40;;;;;;4970488;28;20033;-37
2021/05/04 02:08:12;;;;;;;5.93;3.13;;;10.20;96.60;;;;;;4976352;28;20057;-37
2021/05/04 02:10:38;;;;;;;3.92;3.40;;;10.20;96.90;;;;;;4973124;28;20066;-35
2021/05/04 02:13:03;;;;;;;4.25;3.30;;;10.10;97.20;;;;;;4980072;28;20023;-37
2021/05/04 02:15:29;;;;;;;6.50;3.40;;;10.10;97.40;;;;;;4980718;28;20061;-38
2021/05/04 02:17:54;;;;;;;5.03;3.05;;;10.00;97.50;;;;;;4985279;28;20029;-35
2021/05/04 02:20:20;;;;;;;4.20;3.22;;;10.00;97.70;;;;;;4978904;28;20132;-37
2021/05/04 02:22:46;;;;;;;3.33;2.92;;;10.00;97.60;;;;;;4985535;28;20026;-39
2021/05/04 02:25:12;;;;;;;3.58;3.10;;;10.00;97.70;;;;;;4977379;28;20046;-37
2021/05/04 02:27:38;;;;;;;3.60;3.30;;;10.00;97.60;;;;;;4986359;28;20389;-38
2021/05/04 02:30:04;;;;;;;4.47;3.08;;;10.00;97.70;;;;;;4976194;28;20018;-37
2021/05/04 02:32:35;;;;;;;4.68;3.30;;;10.00;97.70;;;;;;4987695;28;20023;-38
2021/05/04 02:35:05;;;;;;;7.10;3.22;;;10.10;97.70;;;;;;4974622;28;20497;-38
2021/05/04 02:37:31;;;;;;;3.13;2.65;;;10.10;97.70;;;;;;4987095;28;20037;-36
2021/05/04 02:39:56;;;;;;;4.15;3.03;;;10.00;97.50;;;;;;4975230;28;20284;-38
2021/05/04 02:42:22;;;;;;;5.43;2.97;;;10.10;97.70;;;;;;4987633;28;20061;-38
2021/05/04 02:44:47;;;;;;;4.28;3.00;;;10.10;97.60;;;;;;4975849;28;20037;-37
2021/05/04 02:47:13;;;;;;;4.75;2.85;;;10.10;97.70;;;;;;4986348;28;20042;-36
2021/05/04 02:49:39;;;;;;;4.55;3.03;;;10.10;97.70;;;;;;4978118;28;20424;-37
2021/05/04 02:52:04;;;;;;;4.68;3.00;;;10.00;97.70;;;;;;4983427;28;20049;-38
2021/05/04 02:54:30;;;;;;;3.03;2.55;;;10.00;97.70;;;;;;4981427;28;20126;-38
2021/05/04 02:56:55;;;;;;;5.95;3.08;;;10.00;98.00;;;;;;4980275;28;20512;-38
2021/05/04 02:59:21;;;;;;;3.75;2.78;;;10.00;98.30;;;;;;4982643;28;20022;-37
2021/05/04 03:01:46;;;;;;;3.95;2.70;;;10.00;98.40;;;;;;4978057;28;20030;-38
2021/05/04 03:04:12;;;;;;;3.45;2.85;;;9.90;98.50;;;;;;4985172;28;20100;-38
2021/05/04 03:06:37;;;;;;;4.47;2.95;;;9.90;98.90;;;;;;4975608;28;20026;-36
2021/05/04 03:09:06;;;;;;;3.85;2.78;;;9.90;99.10;;;;;;4985731;28;20568;-34
2021/05/04 03:11:32;;;;;;;4.82;2.90;;;9.80;99.40;;;;;;4971236;28;20023;-37
2021/05/04 03:13:57;;;;;;;8.43;2.97;;;9.80;99.30;;;;;;4967522;28;20141;-38
2021/05/04 03:16:23;;;;;;;3.35;3.00;;;9.70;99.40;;;;;;4979379;28;20459;-38
2021/05/04 03:18:48;;;;;;;3.25;2.95;;;9.70;99.50;;;;;;4966695;28;20695;-37
2021/05/04 03:21:14;;;;;;;3.88;3.20;;;9.70;99.60;;;;;;4979490;28;20512;-34
2021/05/04 03:23:39;;;;;;;4.07;3.03;;;9.70;99.70;;;;;;4966469;28;20501;-35
2021/05/04 03:26:05;;;;;;;5.50;3.28;;;9.70;99.70;;;;;;4979667;28;20026;-38
2021/05/04 03:28:31;;;;;;;3.92;2.80;;;9.70;99.60;;;;;;4968908;28;20101;-39
2021/05/04 03:30:56;;;;;;;8.48;3.22;;;9.70;99.50;;;;;;4974655;28;20030;-39
2021/05/04 03:33:22;;;;;;;4.22;2.85;;;9.70;99.30;;;;;;4971391;28;20035;-38
2021/05/04 03:35:47;;;;;;;4.20;2.72;;;9.70;99.10;;;;;;4970981;28;20045;-38
2021/05/04 03:38:16;;;;;;;4.60;2.85;;;9.80;98.90;;;;;;4974582;28;20061;-37
2021/05/04 03:40:41;;;;;;;3.20;2.58;;;9.90;98.60;;;;;;4969488;28;20026;-35
2021/05/04 03:43:07;;;;;;;2.58;2.38;;;9.90;98.50;;;;;;4976285;28;20023;-38
2021/05/04 03:45:33;;;;;;;3.55;2.90;;;9.90;98.30;;;;;;4968350;28;20504;-38
2021/05/04 03:47:58;;;;;;;7.05;2.92;;;10.00;98.30;;;;;;4977091;28;20482;-38
2021/05/04 03:50:26;;;;;;;4.22;2.70;;;10.00;98.60;;;;;;4968035;28;20030;-39
2021/05/04 03:52:53;;;;;;;3.75;3.05;;;10.00;98.80;;;;;;4966384;28;20077;-39
2021/05/04 03:55:19;;;;;;;4.88;3.28;;;9.90;99.20;;;;;;4966913;28;20435;-37
2021/05/04 03:57:45;;;;;;;5.22;2.95;;;9.80;99.60;;;;;;4978112;28;20415;-37
2021/05/04 04:00:12;;;;;;;4.85;3.33;;;9.80;99.80;;;;;;4966758;28;20026;-38
2021/05/04 04:02:38;;;;;;;6.35;3.10;;;9.70;99.90;;;;;;4978260;28;20128;-37
2021/05/04 04:05:05;;;;;;;7.72;3.15;;;9.60;99.90;;;;;;4966637;28;20122;-38
2021/05/04 04:07:30;;;;;;;6.30;3.22;;;9.60;99.90;;;;;;4976432;28;20096;-38
2021/05/04 04:09:59;;;;;;;5.90;3.60;;;9.60;99.90;;;;;;4967785;28;20031;-38
2021/05/04 04:12:25;;;;;;;4.35;2.92;;;9.50;99.90;;;;;;4977531;28;20100;-38
2021/05/04 04:14:54;;;;;;;5.63;2.90;;;9.60;99.90;;;;;;4965761;28;20054;-39
2021/05/04 04:17:23;;;;;;;4.38;2.70;;;9.50;99.90;;;;;;4972438;28;20081;-38
2021/05/04 04:19:48;;;;;;;3.95;2.70;;;9.50;99.90;;;;;;4971818;28;20431;-37
2021/05/04 04:22:14;;;;;;;3.17;2.72;;;9.50;99.90;;;;;;4970045;28;20030;-37
2021/05/04 04:24:40;;;;;;;5.18;3.00;;;9.60;99.90;;;;;;4973825;28;20096;-39
2021/05/04 04:27:09;;;;;;;3.85;2.58;;;9.60;99.90;;;;;;4967782;28;20464;-36
2021/05/04 04:29:35;;;;;;;3.47;2.85;;;9.70;99.90;;;;;;4975631;28;20027;-38
2021/05/04 04:32:04;;;;;;;4.93;2.90;;;9.60;99.90;;;;;;4967324;28;20141;-39
2021/05/04 04:34:29;;;;;;;3.53;2.70;;;9.60;99.90;;;;;;4977141;28;20089;-38
2021/05/04 04:36:55;;;;;;;4.30;3.35;;;9.60;99.90;;;;;;4965882;28;20050;-36
2021/05/04 04:39:21;;;;;;;4.78;2.53;;;9.60;99.90;;;;;;4977648;28;20026;-36
2021/05/04 04:41:47;;;;;;;4.43;3.08;;;9.60;99.90;;;;;;4966044;28;20156;-38
2021/05/04 04:44:12;;;;;;;3.83;3.03;;;9.60;99.90;;;;;;4977740;28;20085;-37
2021/05/04 04:46:41;;;;;;;4.07;2.97;;;9.50;99.90;;;;;;4965881;28;20039;-34
2021/05/04 04:49:11;;;;;;;4.85;2.95;;;9.50;99.90;;;;;;4977076;28;20412;-38
2021/05/04 04:51:37;;;;;;;3.45;2.60;;;9.40;99.90;;;;;;4985104;28;20180;-38
2021/05/04 04:54:04;;;;;;;8.38;3.25;;;9.40;99.90;;;;;;4980720;28;20109;-36
2021/05/04 04:56:29;;;;;;;5.30;3.00;;;9.50;99.90;;;;;;4966938;28;20046;-38
2021/05/04 04:58:55;;;;;;;3.15;2.85;;;9.40;99.90;;;;;;4973270;28;20026;-37
2021/05/04 05:01:20;;;;;;;5.95;3.00;;;9.40;99.90;;;;;;4969512;28;20027;-33
2021/05/04 05:03:46;;;;;;;3.33;2.90;;;9.40;99.90;;;;;;4970038;28;20053;-38
2021/05/04 05:06:11;;;;;;;5.70;3.10;;;9.40;99.90;;;;;;4972779;28;20062;-37
2021/05/04 05:08:37;;;;;;;5.80;2.97;;;9.40;99.90;;;;;;4967979;28;20034;-37
2021/05/04 05:11:02;;;;;;;4.07;3.00;;;9.50;99.90;;;;;;4974463;28;20035;-38
2021/05/04 05:13:28;;;;;;;4.95;3.13;;;9.40;99.90;;;;;;4981664;28;20014;-37
2021/05/04 05:15:54;;;;;;;6.45;2.97;;;9.50;99.90;;;;;;4973568;28;20717;-35
2021/05/04 05:18:19;;;;;;;7.72;2.70;;;9.50;99.90;;;;;;4983823;28;20023;-39
2021/05/04 05:20:45;;;;;;;3.35;2.30;;;9.60;99.90;;;;;;4973124;28;20493;-38
2021/05/04 05:23:12;;;;;;;2.90;2.70;;;9.60;99.90;;;;;;4989274;28;20121;-37
2021/05/04 05:25:38;;;;;;;3.05;2.75;;;9.60;99.90;;;;;;4978343;28;20035;-38
2021/05/04 05:28:05;;;;;;;4.80;2.83;;;9.60;99.90;;;;;;4991203;28;20040;-38
2021/05/04 05:30:30;;;;;;;4.97;2.70;;;9.60;99.90;;;;;;4978901;28;20037;-38
2021/05/04 05:32:56;;;;;;;4.63;2.70;;;9.70;99.90;;;;;;4990878;28;20031;-37
2021/05/04 05:35:21;;;;;;;3.25;2.63;;;9.80;99.90;;;;;;4980864;28;20566;-38
2021/05/04 05:37:47;;;;;;;3.50;2.55;;;9.80;99.90;;;;;;4988283;28;20917;-36
2021/05/04 05:40:15;;;;;;;4.35;2.40;;;9.80;99.90;;;;;;4983736;28;20031;-39
2021/05/04 05:42:41;;;;;;;2.85;2.03;;;9.90;99.90;;;;;;4984861;28;20543;-38
2021/05/04 05:45:07;;;;;;;2.55;2.20;;;10.00;99.70;;;;;;4976147;28;20042;-38
2021/05/04 05:47:33;;;;;;;4.00;2.30;;;10.00;99.60;;;;;;4977700;28;20042;-38
2021/05/04 05:49:58;;;;;;;2.58;2.17;;;10.00;99.60;;;;;;4975610;28;20472;-37
2021/05/04 05:52:24;;;;;;;3.25;2.42;;;10.10;99.40;;;;;;4978835;28;20058;-39
2021/05/04 05:54:50;;;;;;;5.75;2.30;;;10.10;99.40;;;;;;4986406;28;20162;-35
2021/05/04 05:57:15;;;;;;;5.00;2.00;;;10.10;99.30;;;;;;4981180;28;20046;-36
2021/05/04 05:59:41;;;;;;;4.20;1.90;;;10.20;99.30;;;;;;4970974;28;20027;-34
2021/05/04 06:02:07;;;;;;;7.05;3.58;;;10.20;99.10;;;;;;4977023;28;20832;-37
2021/05/04 06:04:32;;;;;;;4.72;1.75;;;10.20;99.10;;;;;;4990266;28;20019;-36
2021/05/04 06:06:58;;;;;;;5.55;1.80;;;10.20;99.10;;;;;;4983316;28;20026;-39
2021/05/04 06:09:24;;;;;;;3.78;1.98;;;10.30;99.00;;;;;;4971451;28;20018;-34
2021/05/04 06:11:49;;;;;;;4.00;2.10;;;10.30;99.10;;;;;;4978061;28;20110;-38
2021/05/04 06:14:16;;;;;;;2.58;1.90;;;10.40;98.90;;;;;;4969570;28;20126;-38
2021/05/04 06:16:42;;;;;;;7.03;2.33;;;10.40;98.90;;;;;;4984896;28;20064;-37
2021/05/04 06:19:08;;;;;;;5.95;1.85;;;10.50;98.60;;;;;;4989487;28;20022;-36
2021/05/04 06:21:34;;;;;;;4.72;1.90;;;10.50;98.70;;;;;;4982844;28;20041;-38
2021/05/04 06:23:59;;;;;;;3.83;2.05;;;10.50;98.50;;;;;;4978704;28;20022;-36
2021/05/04 06:26:25;;;;;;;2.83;1.52;;;10.50;98.50;;;;;;4974739;28;20054;-38
2021/05/04 06:28:50;;;;;;;4.05;2.03;;;10.60;98.70;;;;;;4970760;28;20085;-35
2021/05/04 06:31:17;;;;;;;5.70;1.85;;;10.60;99.00;;;;;;4973845;28;20127;-39
2021/05/04 06:33:43;;;;;;;8.38;1.85;;;10.50;99.20;;;;;;4971905;28;20023;-39
2021/05/04 06:36:09;;;;;;;4.97;2.28;;;10.50;99.50;;;;;;4985221;28;20034;-38
2021/05/04 06:38:35;;;;;;;4.85;1.80;;;10.40;99.80;;;;;;4976545;28;20026;-38
2021/05/04 06:41:02;;;;;;;4.43;2.20;;;10.30;99.90;;;;;;4983764;28;20093;-37
2021/05/04 06:43:27;;;;;;;3.80;2.17;;;10.20;99.90;;;;;;4975076;28;20034;-39
2021/05/04 06:45:53;;;;;;;4.75;2.10;;;10.10;99.90;;;;;;4968173;28;20039;-38
2021/05/04 06:48:19;;;;;;;5.55;2.20;;;10.10;99.90;;;;;;4973781;28;20042;-38
2021/05/04 06:50:45;;;;;;;4.05;2.70;;;10.10;99.90;;;;;;4969848;28;20198;-37
2021/05/04 06:53:10;;;;;;;6.38;2.42;;;10.10;99.90;;;;;;4971919;28;20360;-35
2021/05/04 06:55:36;;;;;;;7.95;2.58;;;10.20;99.90;;;;;;4969454;28;20042;-38
2021/05/04 06:58:02;;;;;;;7.10;2.45;;;10.30;99.90;;;;;;4978143;28;20024;-37
2021/05/04 07:00:28;;;;;;;4.82;2.78;;;10.40;99.90;;;;;;4984320;28;20030;-37
2021/05/04 07:02:53;;;;;;;8.70;2.83;;;10.50;99.90;;;;;;4981156;28;20025;-38
2021/05/04 07:05:19;;;;;;;6.53;2.78;;;10.60;99.90;;;;;;4973732;28;20100;-38
2021/05/04 07:07:45;;;;;;;7.38;2.47;;;10.70;99.90;;;;;;4971475;28;20132;-37
2021/05/04 07:10:11;;;;;;;8.80;3.30;;;10.80;99.40;;;;;;4979198;28;20646;-34
2021/05/04 07:12:41;;;;;;;9.32;3.08;;;10.80;99.20;;;;;;4978640;28;20057;-39
2021/05/04 07:15:10;;;;;;;7.15;2.55;;;10.90;98.80;;;;;;4983261;28;20727;-36
2021/05/04 07:17:38;;;;;;;9.77;2.95;;;11.00;98.80;;;;;;4966246;28;20098;-36
2021/05/04 07:20:05;;;;;;;10.10;2.95;;;11.00;98.70;;;;;;4978782;28;20027;-40
2021/05/04 07:22:31;;;;;;;8.05;2.97;;;11.00;98.70;;;;;;4969271;28;20027;-38
2021/05/04 07:24:57;;;;;;;9.98;3.25;;;11.00;98.60;;;;;;4980321;28;20075;-38
2021/05/04 07:27:23;;;;;;;7.57;2.53;;;11.00;98.90;;;;;;4983798;28;20371;-34
2021/05/04 07:29:49;;;;;;;7.78;2.97;;;10.90;98.90;;;;;;4979187;28;20126;-37
2021/05/04 07:32:18;;;;;;;5.57;2.85;;;11.00;98.80;;;;;;4967383;28;20122;-36
2021/05/04 07:34:45;;;;;;;5.80;2.50;;;10.90;99.00;;;;;;4978624;28;20383;-36
2021/05/04 07:37:11;;;;;;;5.72;2.85;;;10.90;98.90;;;;;;4967874;28;20111;-34
2021/05/04 07:39:37;;;;;;;7.70;2.60;;;10.90;98.80;;;;;;4976935;28;20137;-37
2021/05/04 07:42:04;;;;;;;5.38;2.40;;;11.00;98.90;;;;;;4972468;28;20161;-33
2021/05/04 07:44:30;;;;;;;6.15;2.75;;;11.00;98.70;;;;;;4983320;28;20030;-38
2021/05/04 07:46:55;;;;;;;10.25;3.08;;;11.00;98.60;;;;;;4969288;28;20037;-36
2021/05/04 07:49:34;;;;;;;7.80;3.00;;;11.10;98.60;;;;;;4971506;28;20666;-36
2021/05/04 07:51:59;;;;;;;9.45;2.60;;;11.10;98.30;;;;;;4970673;28;20046;-38
2021/05/04 07:54:25;;;;;;;4.18;2.30;;;11.10;98.30;;;;;;4971688;28;20022;-38
2021/05/04 07:56:50;;;;;;;5.47;2.75;;;11.10;98.60;;;;;;4985678;28;20042;-37
2021/05/04 07:59:16;;;;;;;10.65;2.38;;;11.10;98.60;;;;;;4980962;28;20621;-37
2021/05/04 08:01:41;;;;;;;5.63;1.95;;;11.00;99.10;;;;;;4966563;28;20046;-38
2021/05/04 08:04:07;;;;;;;4.97;1.70;;;10.70;99.50;;;;;;4981382;28;20034;-35
2021/05/04 08:06:33;;;;;;;5.95;2.50;;;10.50;99.90;;;;;;4976488;28;20070;-36
2021/05/04 08:08:59;;;;;;;5.35;2.00;;;10.20;99.90;;;;;;4965326;28;20085;-37
2021/05/04 08:11:27;;;;;;;4.18;2.05;;;10.00;99.90;;;;;;4978265;28;20059;-36
2021/05/04 08:13:53;;;;;;;6.95;2.08;;;9.90;99.90;;;;;;4984558;28;20145;-37
2021/05/04 08:16:19;;;;;;;6.10;2.45;;;9.70;99.90;;;;;;4973025;28;20141;-36
2021/05/04 08:18:46;;;;;;;5.78;2.40;;;9.60;99.90;;;;;;4985974;28;20026;-38
2021/05/04 08:21:12;;;;;;;5.10;2.53;;;9.60;99.90;;;;;;4973198;28;20062;-38
2021/05/04 08:23:38;;;;;;;6.82;2.72;;;9.70;99.90;;;;;;4985737;28;20058;-35
2021/05/04 08:26:03;;;;;;;9.68;3.50;;;9.70;99.90;;;;;;4982881;28;20026;-38
2021/05/04 08:28:29;;;;;;;11.85;3.78;;;9.80;99.90;;;;;;4967985;28;20110;-37
2021/05/04 08:30:54;;;;;;;14.38;4.13;;;9.90;99.90;;;;;;4973101;28;20034;-36
2021/05/04 08:33:21;;;;;;;11.05;4.00;;;10.10;99.90;;;;;;4971298;28;20030;-36
2021/05/04 08:35:46;;;;;;;12.07;4.15;;;10.20;99.90;;;;;;4969550;28;20041;-36
2021/05/04 08:38:13;;;;;;;9.98;3.63;;;10.30;99.90;;;;;;4973663;28;20026;-36
2021/05/04 08:40:39;;;;;;;9.80;3.80;;;10.40;99.90;;;;;;4967370;28;20050;-39
2021/05/04 08:43:05;;;;;;;10.55;3.72;;;10.50;99.90;;;;;;4967508;28;20023;-40
2021/05/04 08:45:34;;;;;;;13.18;3.95;;;10.70;99.90;;;;;;4965304;28;20023;-38
2021/05/04 08:48:01;;;;;;;8.73;3.17;;;10.80;99.90;;;;;;4974044;28;20054;-38
2021/05/04 08:50:28;;;;;;;10.98;3.08;;;10.90;99.90;;;;;;4981189;28;20037;-36
2021/05/04 08:52:54;;;;;;;9.75;3.13;;;10.90;99.90;;;;;;4979699;28;20106;-37
2021/05/04 08:55:20;;;;;;;8.75;2.92;;;10.90;99.90;;;;;;4984878;28;20045;-37
2021/05/04 08:57:46;;;;;;;8.88;3.10;;;10.90;99.60;;;;;;4977294;28;20529;-37
2021/05/04 09:00:13;;;;;;;10.82;3.00;;;11.00;99.70;;;;;;4968537;28;20482;-34
2021/05/04 09:03:07;;;;;;;11.32;4.05;;;11.10;99.70;;;;;;4980121;28;20026;-35
2021/05/04 09:05:38;;;;;;;7.15;3.15;;;11.10;99.70;;;;;;4965910;28;20124;-35
2021/05/04 09:08:09;;;;;;;16.67;4.65;;;11.10;99.90;;;;;;4973755;28;20141;-36
2021/05/04 09:10:40;;;;;;;12.98;4.22;;;11.00;99.90;;;;;;4972590;28;20038;-37
2021/05/04 09:13:31;;;;;;;13.52;4.15;;;10.90;99.90;;;;;;4969161;28;20100;-38
2021/05/04 09:19:06;;;;;;;11.00;3.55;;;10.90;99.90;;;;;;4972196;28;20117;-37
2021/05/04 09:21:37;;;;;;;10.80;4.15;;;11.10;99.90;;;;;;4983096;28;20054;-39
2021/05/04 09:24:19;;;;;;;17.17;4.03;;;11.30;99.90;;;;;;4973845;28;20061;-38
2021/05/04 09:26:45;;;;;;;8.48;3.05;;;11.50;99.70;;;;;;4979461;28;20031;-36
2021/05/04 09:29:11;;;;;;;9.63;3.35;;;11.50;99.70;;;;;;4969413;28;20030;-39
2021/05/04 09:31:38;;;;;;;14.32;3.20;;;11.60;99.70;;;;;;4964883;28;20023;-36
2021/05/04 09:34:14;;;;;;;10.98;2.92;;;11.70;99.10;;;;;;4976976;28;20057;-36
2021/05/04 09:36:46;;;;;;;7.97;3.00;;;11.80;99.00;;;;;;4965272;28;20582;-38
2021/05/04 09:39:32;;;;;;;12.32;3.20;;;11.90;98.40;;;;;;4974201;28;20015;-36
2021/05/04 09:42:03;;;;;;;8.52;2.13;;;12.00;97.70;;;;;;4966543;28;20063;-35
2021/05/04 09:44:39;;;;;;;4.63;2.40;;;12.20;96.60;;;;;;4976497;28;20042;-38
2021/05/04 09:47:06;;;;;;;11.77;2.58;;;12.30;95.80;;;;;;4981947;28;20029;-37
2021/05/04 09:49:37;;;;;;;10.52;2.30;;;12.30;95.60;;;;;;4978747;28;20472;-38
2021/05/04 09:55:04;;;;;;;11.88;3.30;;;12.00;97.60;;;;;;4979067;28;20125;-36
2021/05/04 09:57:40;;;;;;;;;;;11.60;98.90;;;;;;4965589;28;20034;-37
2021/05/04 10:00:08;;;;;;;7.95;2.88;;;11.20;99.90;;;;;;4975969;28;19914;-37
2021/05/04 10:02:35;;;;;;;9.88;2.80;;;10.90;99.90;;;;;;4978594;28;20026;-38
2021/05/04 10:05:02;;;;;;;10.25;2.90;;;10.70;99.90;;;;;;4979819;28;20100;-38
2021/05/04 10:07:31;;;;;;;11.13;2.67;;;10.70;99.90;;;;;;4981081;28;20035;-36
2021/05/04 10:09:58;;;;;;;7.32;2.50;;;10.70;99.90;;;;;;4984044;28;20112;-36
2021/05/04 10:12:24;;;;;;;9.35;2.67;;;10.60;99.90;;;;;;4979905;28;20034;-37
2021/05/04 10:14:56;;;;;;;8.68;2.40;;;10.60;99.90;;;;;;4984111;28;20441;-38
2021/05/04 10:17:22;;;;;;;8.27;2.28;;;10.50;99.90;;;;;;4988095;28;20038;-38
2021/05/04 10:19:49;;;;;;;7.97;2.65;;;10.40;99.90;;;;;;4981812;28;20026;-36
2021/05/04 10:22:15;;;;;;;9.00;3.05;;;10.40;99.90;;;;;;4972188;28;20052;-33
2021/05/04 10:24:42;;;;;;;7.82;1.90;;;10.40;99.90;;;;;;4975892;28;20034;-38
2021/05/04 10:27:10;;;;;;;6.88;1.75;;;10.30;99.90;;;;;;4973658;28;20035;-37
2021/05/04 10:29:37;;;;;;;7.88;2.03;;;10.20;99.50;;;;;;4972358;28;20022;-37
2021/05/04 10:32:04;;;;;;;6.55;1.55;;;10.00;99.40;;;;;;4975356;28;20109;-38
2021/05/04 10:34:35;;;;;;;5.88;1.63;;;9.90;99.10;;;;;;4970859;28;20102;-37
2021/05/04 10:37:13;;;;;;;8.85;2.00;;;10.00;99.60;;;;;;4977043;28;20030;-35
2021/05/04 10:39:46;;;;;;;5.93;1.65;;;10.20;99.10;;;;;;5195684;23;20215;-28
2021/05/04 10:42:14;;;;;;;6.20;1.52;;;10.50;98.30;;;;;;4946604;28;20074;-27
2021/05/04 10:45:03;;;;;;;7.18;1.50;;;10.80;96.90;;;;;;4949855;28;20034;-27
2021/05/04 10:47:43;;;;;;;6.40;1.60;;;11.00;95.80;;;;;;4941566;29;20027;-28
2021/05/04 10:50:11;;;;;;;5.68;1.27;;;11.10;95.00;;;;;;4949596;28;20055;-28
2021/05/04 10:52:56;;;;;;;7.70;1.58;;;11.10;94.40;;;;;;4949457;28;20134;-28
2021/05/04 10:55:24;;;;;;;6.78;1.60;;;11.10;94.20;;;;;;4948888;28;20082;-28
2021/05/04 10:58:01;;;;;;;4.90;1.50;;;11.20;93.30;;;;;;4949061;28;20090;-28
2021/05/04 11:00:49;;;;;;;6.30;1.25;;;11.20;93.50;;;;;;4948399;29;20043;-27
2021/05/04 11:03:30;;;;;;;6.95;1.10;;;11.20;93.80;;;;;;4943383;29;20489;-27
2021/05/04 11:05:56;;;;;;;7.95;1.23;;;11.10;94.20;;;;;;4946761;29;20027;-27
2021/05/04 11:08:22;;;;;;;2.83;1.33;;;11.00;94.20;;;;;;4948324;29;20023;-27
2021/05/04 11:11:33;;;;;;;5.60;1.00;;;11.00;94.60;;;;;;4947951;29;20030;-29
2021/05/04 11:14:14;;;;;;;5.82;1.55;;;11.10;94.50;;;;;;4948494;28;20023;-28
2021/05/04 11:16:59;;;;;;;5.15;0.90;;;11.30;93.40;;;;;;4948410;29;20051;-27
2021/05/04 11:19:28;;;;;;;6.03;1.55;;;11.30;93.10;;;;;;4948188;28;20102;-27
2021/05/04 11:21:57;;;;;;;4.40;1.10;;;11.20;93.10;;;;;;4947397;28;20205;-29
2021/05/04 11:24:30;;;;;;;2.20;1.00;;;11.00;94.30;;;;;;4948557;29;20478;-27
2021/05/04 11:26:57;;;;;;;2.95;0.95;;;10.70;95.40;;;;;;4947729;29;20031;-27
2021/05/04 11:29:32;;;;;;;5.15;1.38;;;10.60;96.20;;;;;;4948005;28;20186;-27
2021/05/04 11:32:15;;;;;;;4.10;1.25;;;10.60;96.20;;;;;;4947777;29;20022;-27
2021/05/04 11:35:01;;;;;;;4.68;1.58;;;10.80;96.20;;;;;;4945608;29;20082;-27
2021/05/04 11:37:29;;;;;;;4.78;1.33;;;11.10;95.90;;;;;;4947310;28;20419;-26
2021/05/04 11:39:59;;;;;;;8.00;1.42;;;11.40;95.40;;;;;;4947851;28;20086;-27
2021/05/04 11:42:40;;;;;;;4.18;0.93;;;11.50;93.90;;;;;;4947107;28;20043;-26
2021/05/04 11:45:28;;;;;;;4.50;1.25;;;11.50;92.60;;;;;;4947666;28;20050;-28
2021/05/04 11:47:58;;;;;;;7.07;1.67;;;11.50;92.10;;;;;;4947277;28;20101;-27
2021/05/04 11:50:28;;;;;;;4.47;1.38;;;11.40;91.70;;;;;;4947379;28;20218;-27
2021/05/04 11:52:58;;;;;;;5.85;1.25;;;11.40;91.10;;;;;;4947341;28;20023;-28
2021/05/04 11:55:24;;;;;;;2.08;1.23;;;11.40;90.80;;;;;;4947614;28;20126;-27
2021/05/04 11:58:03;;;;;;;5.85;1.20;;;11.40;91.00;;;;;;4946699;29;20031;-27
2021/05/04 12:00:31;;;;;;;4.95;1.35;;;11.50;91.20;;;;;;4947763;28;20133;-27
2021/05/04 12:03:05;;;;;;;4.80;1.30;;;11.70;90.50;;;;;;4947390;28;20106;-28
2021/05/04 12:05:31;;;;;;;2.78;0.88;;;11.80;90.40;;;;;;4946559;28;20142;-28
2021/05/04 12:07:58;;;;;;;6.53;1.10;;;12.00;91.10;;;;;;4946698;29;20091;-26
2021/05/04 12:10:38;;;;;;;5.28;1.10;;;12.30;89.60;;;;;;4946391;28;20106;-27
2021/05/04 12:13:10;;;;;;;3.22;1.33;;;12.40;88.70;;;;;;4943841;29;20054;-26
2021/05/04 12:15:38;;;;;;;3.75;1.33;;;12.60;87.50;;;;;;4944430;29;20514;-27
2021/05/04 12:18:14;;;;;;;4.53;1.40;;;12.60;88.40;;;;;;4943711;28;20050;-27
2021/05/04 12:20:54;;;;;;;5.78;1.20;;;12.40;89.10;;;;;;4944174;29;20035;-28
2021/05/04 12:23:29;;;;;;;5.32;1.20;;;12.10;90.50;;;;;;4942494;29;20039;-26
2021/05/04 12:26:07;;;;;;;6.80;1.40;;;12.00;90.00;;;;;;4943834;28;20431;-27
2021/05/04 12:28:36;;;;;;;5.10;1.50;;;11.90;89.60;;;;;;4944251;29;20078;-27
2021/05/04 12:31:09;;;;;;;4.07;1.20;;;11.90;88.40;;;;;;4943760;28;20106;-27
2021/05/04 12:33:37;;;;;;;7.47;1.55;;;11.80;88.20;;;;;;4943458;28;20027;-27
2021/05/04 12:38:45;;;;;;;6.50;1.30;;;11.80;88.50;;;;;;4947239;28;20079;-27
2021/05/04 12:41:23;;;;;;;5.15;1.13;;;11.90;88.80;;;;;;4946577;29;20134;-27
2021/05/04 12:44:02;;;;;;;7.85;1.20;;;11.90;89.10;;;;;;4945912;29;20023;-28
2021/05/04 12:46:31;;;;;;;2.88;1.20;;;11.80;90.60;;;;;;4946224;28;20461;-28
2021/05/04 12:48:58;;;;;;;3.80;1.00;;;11.60;90.10;;;;;;4947197;28;20039;-29
2021/05/04 12:51:29;;;;;;;4.45;0.88;;;11.50;90.40;;;;;;4946907;28;20606;-25
2021/05/04 12:54:22;;;;;;;3.47;1.27;;;11.50;90.60;;;;;;4946831;29;20058;-28
2021/05/04 12:56:52;;;;;;;11.73;2.35;;;11.70;90.20;;;;;;4939049;29;20039;-28
2021/05/04 12:59:30;;;;;;;2.47;0.90;;;11.90;90.10;;;;;;4946944;28;20027;-28
2021/05/04 13:02:05;;;;;;;3.10;1.63;;;11.90;86.90;;;;;;4946477;28;20208;-27